createdAt,value
2023-01-30T00:02:21.519Z,2.80
2023-01-30T00:07:26.422Z,2.80
2023-01-30T00:12:29.596Z,2.70
2023-01-30T00:17:32.762Z,2.70
2023-01-30T00:22:37.226Z,2.60
2023-01-30T00:27:40.360Z,2.60
2023-01-30T00:32:43.509Z,2.70
2023-01-30T00:37:48.153Z,2.60
2023-01-30T00:43:08.862Z,2.60
2023-01-30T00:48:12.043Z,2.60
2023-01-30T00:53:17.598Z,2.60
2023-01-30T00:58:20.863Z,2.60
2023-01-30T01:03:27.095Z,2.50
2023-01-30T01:08:31.543Z,2.40
2023-01-30T01:13:36.237Z,2.40
2023-01-30T01:18:39.359Z,2.30
2023-01-30T01:23:43.833Z,2.40
2023-01-30T01:28:47.412Z,2.40
2023-01-30T01:33:50.810Z,2.40
2023-01-30T01:38:58.017Z,2.40
2023-01-30T01:44:04.135Z,2.40
2023-01-30T01:49:12.957Z,2.30
2023-01-30T01:54:21.142Z,2.40
2023-01-30T01:59:31.427Z,2.30
2023-01-30T02:04:52.893Z,2.40
2023-01-30T02:10:00.236Z,2.50
2023-01-30T02:15:05.322Z,2.40
2023-01-30T02:20:17.905Z,2.40
2023-01-30T02:25:37.090Z,2.40
2023-01-30T02:31:18.705Z,2.50
2023-01-30T02:36:31.447Z,2.60
2023-01-30T02:41:45.328Z,2.50
2023-01-30T02:46:55.549Z,2.50
2023-01-30T02:52:01.433Z,2.50
2023-01-30T02:57:04.549Z,2.60
2023-01-30T03:02:31.046Z,2.60
2023-01-30T03:07:45.446Z,2.60
2023-01-30T03:12:55.558Z,2.60
2023-01-30T03:18:01.942Z,2.60
2023-01-30T03:23:05.069Z,2.60
2023-01-30T03:28:09.379Z,2.60
2023-01-30T03:33:16.638Z,2.70
2023-01-30T03:38:20.406Z,2.80
2023-01-30T03:43:26.487Z,2.80
2023-01-30T03:48:31.190Z,2.60
2023-01-30T03:53:34.327Z,2.60
2023-01-30T03:58:37.431Z,2.50
2023-01-30T04:03:41.963Z,2.50
2023-01-30T04:08:45.095Z,2.50
2023-01-30T04:13:48.284Z,2.50
2023-01-30T04:18:53.845Z,2.50
2023-01-30T04:23:57.267Z,2.60
2023-01-30T04:29:00.602Z,2.40
2023-01-30T04:34:05.100Z,2.30
2023-01-30T04:39:08.402Z,2.30
2023-01-30T04:44:11.964Z,2.20
2023-01-30T04:49:16.842Z,2.40
2023-01-30T04:54:19.980Z,2.20
2023-01-30T04:59:35.700Z,2.20
2023-01-30T05:04:40.404Z,2.20
2023-01-30T05:09:43.774Z,2.20
2023-01-30T05:14:47.002Z,2.30
2023-01-30T05:19:51.513Z,2.30
2023-01-30T05:24:54.705Z,2.40
2023-01-30T05:29:57.862Z,2.40
2023-01-30T05:35:03.004Z,2.40
2023-01-30T05:40:07.691Z,2.60
2023-01-30T05:45:11.784Z,2.50
2023-01-30T05:50:17.930Z,2.50
2023-01-30T05:55:24.379Z,2.50
2023-01-30T06:00:27.813Z,2.50
2023-01-30T06:05:32.364Z,2.50
2023-01-30T06:10:35.861Z,2.60
2023-01-30T06:15:39.374Z,2.60
2023-01-30T06:20:48.938Z,2.70
2023-01-30T06:25:52.997Z,2.80
2023-01-30T06:30:56.342Z,2.80
2023-01-30T06:36:00.935Z,2.90
2023-01-30T06:41:04.009Z,3.00
2023-01-30T06:46:07.266Z,2.90
2023-01-30T06:51:11.760Z,3.10
2023-01-30T06:56:14.894Z,3.00
2023-01-30T07:01:18.974Z,3.10
2023-01-30T07:06:23.535Z,3.10
2023-01-30T07:11:26.851Z,3.10
2023-01-30T07:16:30.962Z,3.10
2023-01-30T07:21:35.494Z,3.20
2023-01-30T07:26:38.819Z,3.20
2023-01-30T07:31:42.034Z,3.30
2023-01-30T07:36:46.642Z,3.20
2023-01-30T07:41:49.740Z,3.30
2023-01-30T07:46:52.833Z,3.30
2023-01-30T07:51:57.366Z,3.40
2023-01-30T07:57:00.442Z,3.40
2023-01-30T08:02:03.532Z,3.40
2023-01-30T08:07:07.973Z,3.60
2023-01-30T08:12:11.048Z,3.50
2023-01-30T08:17:14.178Z,3.70
2023-01-30T08:22:18.770Z,3.70
2023-01-30T08:27:22.057Z,3.80
2023-01-30T08:32:25.167Z,3.80
2023-01-30T08:37:29.826Z,3.80
2023-01-30T08:42:32.917Z,3.90
2023-01-30T08:47:36.140Z,4.00
2023-01-30T08:52:40.606Z,4.10
2023-01-30T08:57:43.766Z,4.10
2023-01-30T09:02:47.059Z,4.10
2023-01-30T09:07:51.959Z,4.20
2023-01-30T09:12:55.110Z,4.30
2023-01-30T09:17:58.224Z,4.50
2023-01-30T09:23:02.942Z,4.50
2023-01-30T09:28:06.372Z,4.50
2023-01-30T09:33:09.502Z,4.60
2023-01-30T09:38:13.958Z,4.70
2023-01-30T09:43:31.085Z,4.80
2023-01-30T09:48:42.660Z,4.90
2023-01-30T09:54:01.005Z,5.00
2023-01-30T09:59:05.722Z,5.20
2023-01-30T10:04:16.998Z,5.30
2023-01-30T10:09:33.070Z,5.50
2023-01-30T10:14:51.778Z,5.70
2023-01-30T10:20:23.832Z,5.90
2023-01-30T10:25:34.134Z,6.10
2023-01-30T10:30:37.548Z,6.30
2023-01-30T10:35:43.652Z,6.40
2023-01-30T10:40:53.646Z,6.50
2023-01-30T10:46:06.979Z,6.40
2023-01-30T10:51:24.722Z,6.50
2023-01-30T10:56:36.479Z,6.40
2023-01-30T11:01:44.940Z,6.40
2023-01-30T11:06:48.729Z,6.30
2023-01-30T11:11:55.192Z,6.30
2023-01-30T11:16:59.665Z,6.30
2023-01-30T11:22:05.204Z,6.30
2023-01-30T11:27:13.478Z,6.40
2023-01-30T11:32:28.390Z,6.50
2023-01-30T11:37:34.389Z,6.50
2023-01-30T11:42:46.738Z,6.70
2023-01-30T11:48:03.268Z,6.80
2023-01-30T11:53:22.677Z,6.80
2023-01-30T11:58:32.451Z,6.90
2023-01-30T12:03:49.257Z,6.90
2023-01-30T12:08:55.882Z,6.90
2023-01-30T12:14:15.969Z,7.00
2023-01-30T12:19:35.164Z,7.00
2023-01-30T12:24:43.435Z,7.00
2023-01-30T12:30:00.268Z,7.00
2023-01-30T12:35:04.103Z,7.10
2023-01-30T12:40:20.767Z,7.10
2023-01-30T12:45:27.840Z,7.10
2023-01-30T12:50:42.962Z,7.10
2023-01-30T12:55:58.524Z,7.10
2023-01-30T13:01:17.578Z,7.10
2023-01-30T13:06:46.899Z,7.10
2023-01-30T13:12:01.363Z,7.10
2023-01-30T13:17:19.912Z,7.10
2023-01-30T13:22:27.992Z,7.10
2023-01-30T13:27:35.329Z,7.00
2023-01-30T13:32:44.669Z,7.00
2023-01-30T13:37:50.105Z,6.90
2023-01-30T13:42:57.161Z,6.90
2023-01-30T13:48:16.539Z,6.90
2023-01-30T13:53:26.801Z,6.80
2023-01-30T13:58:44.860Z,6.80
2023-01-30T14:03:49.654Z,6.70
2023-01-30T14:08:59.203Z,6.70
2023-01-30T14:14:05.930Z,6.60
2023-01-30T14:19:39.276Z,6.50
2023-01-30T14:24:42.908Z,6.40
2023-01-30T14:29:55.353Z,6.30
2023-01-30T14:35:22.956Z,6.20
2023-01-30T14:40:34.500Z,6.10
2023-01-30T14:45:49.251Z,6.00
2023-01-30T14:51:12.591Z,5.90
2023-01-30T14:56:16.304Z,5.80
2023-01-30T15:01:19.900Z,5.80
2023-01-30T15:06:27.476Z,5.70
2023-01-30T15:11:33.059Z,5.70
2023-01-30T15:17:07.301Z,5.70
2023-01-30T15:22:22.005Z,5.60
2023-01-30T15:27:32.057Z,5.60
2023-01-30T15:32:35.313Z,5.50
2023-01-30T15:37:41.388Z,5.50
2023-01-30T15:42:45.984Z,5.40
2023-01-30T15:48:04.774Z,5.30
2023-01-30T15:53:16.468Z,5.30
2023-01-30T15:58:22.070Z,5.30
2023-01-30T16:03:28.201Z,5.30
2023-01-30T16:08:34.737Z,5.40
2023-01-30T16:13:39.730Z,5.40
2023-01-30T16:18:48.854Z,5.40
2023-01-30T16:24:04.730Z,5.40
2023-01-30T16:29:14.950Z,5.50
2023-01-30T16:34:30.653Z,5.50
2023-01-30T16:39:36.626Z,5.50
2023-01-30T16:44:39.705Z,5.50
2023-01-30T16:49:47.481Z,5.50
2023-01-30T16:54:54.232Z,5.60
2023-01-30T16:59:57.447Z,5.60
2023-01-30T17:05:18.341Z,5.60
2023-01-30T17:10:53.422Z,5.70
2023-01-30T17:16:16.647Z,5.70
2023-01-30T17:21:20.757Z,5.80
2023-01-30T17:26:25.366Z,5.80
2023-01-30T17:31:28.611Z,5.80
2023-01-30T17:36:32.559Z,5.90
2023-01-30T17:41:37.716Z,6.00
2023-01-30T17:46:45.320Z,5.90
2023-01-30T17:51:49.409Z,5.90
2023-01-30T17:56:56.378Z,5.90
2023-01-30T18:02:00.053Z,5.90
2023-01-30T18:07:06.414Z,6.00
2023-01-30T18:12:10.915Z,6.00
2023-01-30T18:17:14.274Z,6.00
2023-01-30T18:22:17.347Z,6.00
2023-01-30T18:27:21.812Z,6.00
2023-01-30T18:32:24.918Z,6.00
2023-01-30T18:37:28.058Z,6.00
2023-01-30T18:42:32.555Z,6.00
2023-01-30T18:47:35.602Z,6.00
2023-01-30T18:52:38.699Z,6.00
2023-01-30T18:57:43.395Z,6.10
2023-01-30T19:02:46.674Z,6.10
2023-01-30T19:07:49.920Z,6.10
2023-01-30T19:13:11.830Z,6.20
2023-01-30T19:18:14.957Z,6.20
2023-01-30T19:23:18.224Z,6.20
2023-01-30T19:28:23.019Z,6.20
2023-01-30T19:33:28.281Z,6.20
2023-01-30T19:38:31.375Z,6.20
2023-01-30T19:43:37.933Z,6.20
2023-01-30T19:48:41.847Z,6.20
2023-01-30T19:53:46.608Z,6.20
2023-01-30T19:58:51.905Z,6.20
2023-01-30T20:03:55.447Z,6.20
2023-01-30T20:09:01.044Z,6.20
2023-01-30T20:14:07.138Z,6.20
2023-01-30T20:19:14.442Z,6.20
2023-01-30T20:24:17.756Z,6.30
2023-01-30T20:29:22.245Z,6.30
2023-01-30T20:34:25.509Z,6.30
2023-01-30T20:39:28.765Z,6.30
2023-01-30T20:44:35.289Z,6.30
2023-01-30T20:49:38.515Z,6.40
2023-01-30T20:54:41.677Z,6.40
2023-01-30T20:59:46.891Z,6.40
2023-01-30T21:04:50.208Z,6.50
2023-01-30T21:09:53.575Z,6.50
2023-01-30T21:14:58.124Z,6.50
2023-01-30T21:20:01.448Z,6.50
2023-01-30T21:25:05.502Z,6.50
2023-01-30T21:30:11.640Z,6.50
2023-01-30T21:35:14.954Z,6.50
2023-01-30T21:40:36.717Z,6.50
2023-01-30T21:45:41.249Z,6.50
2023-01-30T21:50:44.708Z,6.50
2023-01-30T21:55:51.921Z,6.50
2023-01-30T22:00:56.668Z,6.60
2023-01-30T22:05:59.900Z,6.60
2023-01-30T22:11:08.432Z,6.60
2023-01-30T22:16:15.028Z,6.60
2023-01-30T22:21:20.631Z,6.60
2023-01-30T22:26:25.229Z,6.60
2023-01-30T22:31:34.526Z,6.60
2023-01-30T22:36:38.383Z,6.60
2023-01-30T22:41:41.564Z,6.60
2023-01-30T22:46:46.086Z,6.60
2023-01-30T22:51:49.281Z,6.50
2023-01-30T22:56:52.728Z,6.50
2023-01-30T23:01:57.306Z,6.50
2023-01-30T23:07:00.693Z,6.60
2023-01-30T23:12:21.078Z,6.50
2023-01-30T23:17:43.129Z,6.50
2023-01-30T23:22:46.239Z,6.60
2023-01-30T23:27:49.349Z,6.60
2023-01-30T23:32:53.879Z,6.60
2023-01-30T23:38:25.990Z,6.60
2023-01-30T23:43:29.135Z,6.60
2023-01-30T23:48:33.628Z,6.60
2023-01-30T23:53:37.645Z,6.70
2023-01-30T23:58:42.194Z,6.70
